Flight Track Log - Related Links

Times and Time Zones

All times are in EDT time to prevent confusion due to time zone crossing. See the PDT4147 flight status page for this flight to view local times or setup timezone preferences in your user account.

Time Position Orientation Groundspeed Altitude Reporting Facility
EDT Latitude Longitude Course Direction KTS MPH feet Rate Location/Type
Sat 02:52:08 PM 35.1992 -80.9353 71° East 134 154 1,400  Level Atlanta Center
Sat 02:53:27 PM 35.1889 -80.8644 100° East 189 217 3,600 1,612 Climbing Atlanta Center
Sat 02:54:00 PM 35.2873 -80.6400 64° Northeast  Level FlightAware Approximate
Sat 02:54:22 PM 35.1878 -80.8139 92° East 166 191 5,000  Level Atlanta Center
Sat 02:55:00 PM 35.3232 -80.5434 71° East  Level FlightAware Approximate
Sat 02:55:29 PM 35.1856 -80.7378 92° East 230 265 5,100  Level Atlanta Center
Sat 02:56:00 PM 35.3515 -80.4428 71° East  Level FlightAware Approximate
Sat 02:56:24 PM 35.2150 -80.6628 64° Northeast 274 315 5,000  Level Atlanta Center
Sat 02:57:00 PM 35.3797 -80.3422 71° East  Level FlightAware Approximate
Sat 02:57:19 PM 35.2464 -80.5953 60° Northeast 251 289 6,400  Level Atlanta Center
Sat 02:58:32 PM 35.2797 -80.5203 61° Northeast 190 219 8,500 1,219 Climbing Atlanta Center
Sat 02:59:27 PM 35.3053 -80.4631 61° Northeast 208 239 9,000 545 Climbing Atlanta Center
Sat 03:01:00 PM 35.3657 -80.3158 63° Northeast  Level FlightAware Approximate
Sat 03:08:00 PM 35.8633 -80.0625 North  Level FlightAware Approximate
Sat 03:09:00 PM 35.9498 -80.0546 North  Level FlightAware Approximate
Sat 03:10:00 PM 36.0364 -80.0476 North  Level FlightAware Approximate
Sat 03:11:00 PM 36.1230 -80.0419 North  Level FlightAware Approximate
Sat 03:12:00 PM 36.2096 -80.0361 North  Level FlightAware Approximate
Sat 03:13:00 PM 36.2963 -80.0304 North  Level FlightAware Approximate
Sat 03:14:00 PM 36.3829 -80.0246 North  Level FlightAware Approximate
Sat 03:15:00 PM 36.4695 -80.0188 North  Level FlightAware Approximate
Sat 03:16:00 PM 36.5561 -80.0130 North  Level FlightAware Approximate
Sat 03:17:00 PM 36.6427 -80.0072 North  Level FlightAware Approximate
Sat 03:18:00 PM 36.7294 -80.0014 North  Level FlightAware Approximate
Sat 03:19:00 PM 36.8161 -80.0000 North  Level FlightAware Approximate
Sat 03:20:00 PM 36.9028 -80.0000 North  Level FlightAware Approximate
Sat 03:21:00 PM 36.9879 -79.9833 North  Level FlightAware Approximate
Sat 03:22:00 PM 37.0746 -79.9833 360° North  Level FlightAware Approximate
Sat 03:23:00 PM 37.1613 -79.9833 North  Level FlightAware Approximate
Sat 03:24:00 PM 37.2473 -79.9706 North  Level FlightAware Approximate
Sat 03:25:00 PM 37.3167 -79.9667 North  Level FlightAware Approximate
Sat 03:26:00 PM 37.3255 -79.9754 North  Level Estimated
Sat 03:27:00 PM 37.3255 -79.9754 North  Level Estimated
Sat 03:28:00 PM 37.3255 -79.9754 North  Level Estimated
Sat 03:29:00 PM 37.3255 -79.9754 North  Level Estimated
Sat 03:30:00 PM 37.3255 -79.9754 North  Level Estimated
Sat 03:31:00 PM 37.3255 -79.9754 North  Level Estimated
Sat 03:32:00 PM 37.3255 -79.9754 North  Level Estimated
Sat 03:33:00 PM 37.3255 -79.9754 North  Level Estimated

Login

Don't have an account? Register now (free) for customized features, flight alerts, and more!